Time;durP1;ratioP1;P1;durP2;ratioP2;P2;SDS_P1;SDS_P2;PMS_P1;PMS_P2;Temp;Humidity;BMP_temperature;BMP_pressure;BME280_temperature;BME280_humidity;BME280_pressure;Samples;Min_cycle;Max_cycle;Signal;HPM_P1;HPM_P2
2021/11/13 00:02:21;;;;;;;53.97;23.85;;;;;;;9.34;100.00;100936.78;5074007;28;20027;-65
2021/11/13 00:04:46;;;;;;;45.58;22.92;;;;;;;9.36;100.00;100936.75;5083857;28;20020;-65
2021/11/13 00:07:12;;;;;;;47.30;24.58;;;;;;;9.34;100.00;100923.56;5094087;28;20024;-65
2021/11/13 00:09:38;;;;;;;49.20;23.25;;;;;;;9.35;100.00;100924.44;5076921;28;20025;-64
2021/11/13 00:12:05;;;;;;;49.75;24.15;;;;;;;9.35;100.00;100924.44;5073823;28;20027;-64
2021/11/13 00:14:31;;;;;;;51.63;25.98;;;;;;;9.38;100.00;100912.91;5076518;28;20012;-63
2021/11/13 00:16:56;;;;;;;48.63;25.35;;;;;;;9.44;100.00;100910.88;5094294;28;20046;-64
2021/11/13 00:19:22;;;;;;;44.60;23.50;;;;;;;9.49;100.00;100908.06;5085410;28;20013;-64
2021/11/13 00:21:47;;;;;;;41.50;22.60;;;;;;;9.56;100.00;100913.97;5073713;28;20438;-65
2021/11/13 00:24:13;;;;;;;41.65;22.42;;;;;;;9.60;100.00;100904.97;5073407;28;20028;-65
2021/11/13 00:26:39;;;;;;;40.20;21.23;;;;;;;9.66;100.00;100910.03;5088418;28;20535;-64
2021/11/13 00:29:05;;;;;;;40.88;22.67;;;;;;;9.63;100.00;100899.56;5093170;28;20058;-65
2021/11/13 00:31:30;;;;;;;40.25;21.77;;;;;;;9.64;100.00;100890.72;5073349;28;20095;-64
2021/11/13 00:33:56;;;;;;;38.63;21.23;;;;;;;9.65;100.00;100903.91;5073380;28;20040;-66
2021/11/13 00:36:22;;;;;;;42.70;21.95;;;;;;;9.66;100.00;100900.31;5080461;28;20044;-65
2021/11/13 00:38:47;;;;;;;41.08;22.00;;;;;;;9.67;100.00;100901.19;5093449;28;20028;-65
2021/11/13 00:41:13;;;;;;;36.75;21.73;;;;;;;9.66;100.00;100889.72;5080284;28;20350;-64
2021/11/13 00:43:38;;;;;;;39.25;22.17;;;;;;;9.71;100.00;100889.56;5073426;28;20032;-64
2021/11/13 00:46:04;;;;;;;39.72;22.90;;;;;;;9.72;100.00;100887.75;5073571;28;20037;-63
2021/11/13 00:48:30;;;;;;;44.53;23.02;;;;;;;9.75;100.00;100885.00;5086764;28;20041;-65
2021/11/13 00:50:55;;;;;;;42.35;22.83;;;;;;;9.72;100.00;100875.41;5072654;28;20027;-65
2021/11/13 00:53:20;;;;;;;43.17;23.85;;;;;;;9.75;100.00;100877.91;5072990;28;20056;-64
2021/11/13 00:55:45;;;;;;;41.97;24.33;;;;;;;9.77;100.00;100872.56;5073310;28;20631;-64
2021/11/13 00:58:11;;;;;;;44.75;24.63;;;;;;;9.78;100.00;100871.63;5074045;28;20043;-64
2021/11/13 01:00:36;;;;;;;44.17;24.80;;;;;;;9.78;100.00;100869.88;5072867;28;20028;-64
2021/11/13 01:03:02;;;;;;;44.63;24.23;;;;;;;9.75;100.00;100872.63;5070803;28;20491;-66
2021/11/13 01:05:27;;;;;;;41.78;24.60;;;;;;;9.77;100.00;100865.50;5072940;28;20032;-65
2021/11/13 01:07:53;;;;;;;42.08;25.42;;;;;;;9.81;100.00;100869.75;5073879;28;20024;-63
2021/11/13 01:10:20;;;;;;;40.92;24.45;;;;;;;9.83;100.00;100859.09;5072660;28;20033;-65
2021/11/13 01:12:47;;;;;;;39.20;24.13;;;;;;;9.86;100.00;100866.03;5072508;28;20044;-63
2021/11/13 01:15:14;;;;;;;38.70;22.95;;;;;;;9.89;100.00;100858.84;5072516;28;20025;-65
2021/11/13 01:17:39;;;;;;;38.63;22.60;;;;;;;9.87;100.00;100859.81;5072929;28;20032;-64
2021/11/13 01:20:08;;;;;;;33.97;20.80;;;;;;;9.90;100.00;100868.50;5073627;28;20028;-65
2021/11/13 01:22:33;;;;;;;39.80;22.58;;;;;;;9.91;100.00;100861.41;5072621;28;20055;-63
2021/11/13 01:24:58;;;;;;;39.60;21.52;;;;;;;9.95;100.00;100869.16;5072395;28;20469;-63
2021/11/13 01:27:24;;;;;;;36.35;20.10;;;;;;;9.96;100.00;100868.25;5072569;28;20528;-65
2021/11/13 01:29:49;;;;;;;41.17;21.55;;;;;;;9.95;100.00;100855.94;5073564;28;20036;-63
2021/11/13 01:32:16;;;;;;;34.60;18.48;;;;;;;10.00;100.00;100856.59;5072559;28;20094;-64
2021/11/13 01:34:42;;;;;;;32.38;18.85;;;;;;;10.01;100.00;100857.47;5072257;28;20123;-64
2021/11/13 01:37:08;;;;;;;33.05;19.05;;;;;;;10.05;100.00;100852.91;5072621;28;20032;-64
2021/11/13 01:39:33;;;;;;;33.70;18.42;;;;;;;10.05;100.00;100858.19;5073256;28;20056;-63
2021/11/13 01:41:59;;;;;;;31.88;17.73;;;;;;;10.06;100.00;100854.63;5072472;28;20056;-64
2021/11/13 01:44:25;;;;;;;29.55;16.92;;;;;;;10.07;100.00;100853.72;5071984;28;20031;-64
2021/11/13 01:46:51;;;;;;;30.00;15.80;;;;;;;10.09;100.00;100850.06;5072313;28;20365;-62
2021/11/13 01:49:16;;;;;;;32.72;16.45;;;;;;;10.09;100.00;100857.13;5072505;28;20361;-64
2021/11/13 01:51:45;;;;;;;28.15;13.02;;;;;;;10.15;100.00;100841.00;5073482;28;20036;-64
2021/11/13 01:54:10;;;;;;;28.10;13.60;;;;;;;10.12;100.00;100852.56;5072479;28;20047;-65
2021/11/13 01:56:38;;;;;;;23.90;12.90;;;;;;;10.13;100.00;100853.44;5072105;28;20457;-63
2021/11/13 01:59:05;;;;;;;24.25;12.85;;;;;;;10.17;100.00;100857.69;5072486;28;20033;-66
2021/11/13 02:01:31;;;;;;;31.02;12.82;;;;;;;10.20;100.00;100843.44;5076926;28;20095;-62
2021/11/13 02:03:57;;;;;;;28.98;13.45;;;;;;;10.16;100.00;100845.38;5076498;28;20127;-65
2021/11/13 02:06:23;;;;;;;30.48;13.93;;;;;;;10.18;100.00;100859.41;5076084;28;20025;-66
2021/11/13 02:08:49;;;;;;;29.00;13.35;;;;;;;10.20;100.00;100844.31;5076329;28;20051;-65
2021/11/13 02:11:19;;;;;;;27.90;12.63;;;;;;;10.19;100.00;100850.50;5077212;28;20078;-66
2021/11/13 02:13:45;;;;;;;29.23;12.70;;;;;;;10.20;100.00;100838.16;5076155;28;20032;-66
2021/11/13 02:16:11;;;;;;;31.40;11.88;;;;;;;10.17;100.00;100837.34;5075391;28;20348;-65
2021/11/13 02:18:38;;;;;;;29.85;11.68;;;;;;;10.20;100.00;100846.94;5076170;28;20496;-64
2021/11/13 02:21:04;;;;;;;33.33;11.35;;;;;;;10.23;100.00;100838.00;5077089;28;20107;-66
2021/11/13 02:23:30;;;;;;;28.38;10.88;;;;;;;10.29;100.00;100838.63;5075830;28;20110;-64
2021/11/13 02:25:55;;;;;;;29.85;11.30;;;;;;;10.36;100.00;100833.06;5075565;28;20024;-63
2021/11/13 02:28:23;;;;;;;28.48;10.63;;;;;;;10.37;100.00;100834.81;5075333;28;20044;-65
2021/11/13 02:30:51;;;;;;;33.15;10.07;;;;;;;10.31;100.00;100831.47;5075510;28;20025;-65
2021/11/13 02:33:17;;;;;;;31.70;10.15;;;;;;;10.28;100.00;100843.97;5076777;28;20029;-65
2021/11/13 02:35:44;;;;;;;31.95;9.18;;;;;;;10.28;100.00;100830.72;5075847;28;20058;-64
2021/11/13 02:38:17;;;;;;;27.48;9.10;;;;;;;10.25;100.00;100830.88;5075585;28;20024;-64
2021/11/13 02:40:46;;;;;;;24.10;8.15;;;;;;;10.29;100.00;100821.88;5074983;28;20040;-65
2021/11/13 02:43:12;;;;;;;22.80;8.18;;;;;;;10.34;100.00;100830.47;5076475;28;20480;-63
2021/11/13 02:45:38;;;;;;;24.08;8.50;;;;;;;10.35;100.00;100824.25;5075435;28;20107;-62
2021/11/13 02:48:04;;;;;;;26.38;8.27;;;;;;;10.37;100.00;100829.50;5075378;28;20488;-65
2021/11/13 02:50:30;;;;;;;19.73;7.55;;;;;;;10.42;100.00;100827.50;5075105;28;20043;-64
2021/11/13 02:52:57;;;;;;;14.85;6.93;;;;;;;10.45;100.00;100835.34;5075434;28;20025;-64
2021/11/13 02:55:24;;;;;;;23.58;8.45;;;;;;;10.46;100.00;100829.97;5093714;28;20371;-64
2021/11/13 02:57:50;;;;;;;20.52;7.30;;;;;;;10.48;100.00;100829.91;5095463;28;20055;-63
2021/11/13 03:00:19;;;;;;;25.67;6.90;;;;;;;10.46;100.00;100829.97;5088797;28;20029;-64
2021/11/13 03:02:44;;;;;;;18.30;6.65;;;;;;;10.46;100.00;100837.03;5074912;28;20411;-65
2021/11/13 03:05:29;;;;;;;22.05;6.70;;;;;;;10.43;100.00;100832.72;5087079;28;20073;-63
2021/11/13 03:07:57;;;;;;;21.83;6.68;;;;;;;10.40;100.00;100832.03;5095414;28;20028;-65
2021/11/13 03:10:25;;;;;;;19.92;6.50;;;;;;;10.40;100.00;100832.03;5093055;28;20462;-64
2021/11/13 03:12:52;;;;;;;21.88;7.35;;;;;;;10.41;100.00;100829.31;5073022;28;20013;-64
2021/11/13 03:15:19;;;;;;;21.05;7.55;;;;;;;10.43;100.00;100839.81;5082392;28;20046;-64
2021/11/13 03:17:46;;;;;;;24.10;7.30;;;;;;;10.40;100.00;100835.53;5095480;28;20023;-63
2021/11/13 03:20:16;;;;;;;23.27;8.57;;;;;;;10.36;100.00;100822.50;5095152;28;20020;-63
2021/11/13 03:22:42;;;;;;;17.67;8.57;;;;;;;10.31;100.00;100834.13;5079772;28;20035;-65
2021/11/13 03:25:10;;;;;;;25.77;9.50;;;;;;;10.32;100.00;100824.41;5075209;28;20373;-63
2021/11/13 03:27:37;;;;;;;29.10;10.32;;;;;;;10.31;100.00;100825.31;5076853;28;20033;-64
2021/11/13 03:30:05;;;;;;;26.70;10.27;;;;;;;10.26;100.00;100835.25;5074849;28;20181;-65
2021/11/13 03:32:31;;;;;;;29.48;10.65;;;;;;;10.24;100.00;100843.22;5074714;28;20467;-64
2021/11/13 03:34:56;;;;;;;26.77;9.25;;;;;;;10.26;100.00;100849.34;5074538;28;20039;-64
2021/11/13 03:37:22;;;;;;;30.67;11.27;;;;;;;10.32;100.00;100835.84;5058424;28;20051;-64
2021/11/13 03:39:47;;;;;;;17.23;7.40;;;;;;;10.39;100.00;100838.25;5074374;28;20028;-62
2021/11/13 03:42:13;;;;;;;23.60;9.75;;;;;;;10.41;100.00;100834.59;5074180;28;20028;-65
2021/11/13 03:44:38;;;;;;;20.08;9.85;;;;;;;10.40;100.00;100851.41;5074686;28;20028;-65
2021/11/13 03:47:04;;;;;;;25.20;9.80;;;;;;;10.38;100.00;100842.66;5075084;28;20028;-64
2021/11/13 03:49:29;;;;;;;19.45;6.78;;;;;;;10.39;100.00;100852.34;5074326;28;20431;-65
2021/11/13 03:51:55;;;;;;;19.98;6.80;;;;;;;10.33;100.00;100855.22;5074328;28;20020;-64
2021/11/13 03:54:20;;;;;;;16.80;6.75;;;;;;;10.33;100.00;100858.75;5074376;28;20112;-65
2021/11/13 03:56:45;;;;;;;18.52;5.85;;;;;;;10.35;100.00;100850.72;5073973;28;20051;-66
2021/11/13 03:59:11;;;;;;;22.60;6.35;;;;;;;10.36;100.00;100856.91;5074616;28;20037;-63
2021/11/13 04:01:36;;;;;;;22.48;6.05;;;;;;;10.33;100.00;100864.03;5073938;28;20028;-65
2021/11/13 04:04:02;;;;;;;22.23;6.60;;;;;;;10.33;100.00;100853.44;5074119;28;20387;-65
2021/11/13 04:06:28;;;;;;;16.70;5.78;;;;;;;10.37;100.00;100874.50;5074653;28;20029;-65
2021/11/13 04:08:54;;;;;;;17.17;5.68;;;;;;;10.33;100.00;100865.81;5074262;28;20464;-64
2021/11/13 04:11:19;;;;;;;16.90;4.20;;;;;;;10.36;100.00;100875.44;5074230;28;20082;-64
2021/11/13 04:13:44;;;;;;;15.95;3.83;;;;;;;10.33;100.00;100860.50;5073559;28;20461;-63
2021/11/13 04:16:10;;;;;;;17.00;3.50;;;;;;;10.37;100.00;100867.44;5073785;28;20111;-65
2021/11/13 04:18:35;;;;;;;12.73;3.65;;;;;;;10.38;100.00;100868.28;5074673;28;20024;-65
2021/11/13 04:21:02;;;;;;;9.07;3.28;;;;;;;10.32;100.00;100870.25;5073521;28;20056;-65
2021/11/13 04:23:27;;;;;;;14.75;3.53;;;;;;;10.25;100.00;100868.78;5073572;28;20032;-65
2021/11/13 04:25:52;;;;;;;12.38;2.90;;;;;;;10.19;100.00;100868.19;5073838;28;20081;-66
2021/11/13 04:28:18;;;;;;;11.88;3.03;;;;;;;10.15;100.00;100868.34;5074096;28;20094;-65
2021/11/13 04:30:43;;;;;;;12.75;3.08;;;;;;;10.10;100.00;100872.97;5062292;28;20079;-63
2021/11/13 04:33:09;;;;;;;9.32;2.97;;;;;;;10.05;100.00;100863.47;5053589;28;20453;-64
2021/11/13 04:35:46;;;;;;;11.38;2.80;;;;;;;10.07;100.00;100870.44;5053264;28;20079;-67
2021/11/13 04:38:12;;;;;;;12.57;3.25;;;;;;;10.14;100.00;100878.97;5053549;28;20021;-62
2021/11/13 04:40:37;;;;;;;11.77;3.00;;;;;;;10.17;100.00;100886.78;5073241;28;20020;-63
2021/11/13 04:43:03;;;;;;;13.35;2.70;;;;;;;10.18;100.00;100883.22;5073221;28;20468;-64
2021/11/13 04:45:29;;;;;;;9.75;2.63;;;;;;;10.21;100.00;100892.81;5073100;28;20031;-63
2021/11/13 04:47:55;;;;;;;18.52;2.92;;;;;;;10.19;100.00;100895.50;5073158;28;20032;-63
2021/11/13 04:50:22;;;;;;;9.77;2.50;;;;;;;10.19;100.00;100899.94;5074402;28;20028;-63
2021/11/13 04:52:48;;;;;;;15.15;2.58;;;;;;;10.15;100.00;100899.22;5072833;28;20028;-63
2021/11/13 04:55:15;;;;;;;8.70;2.35;;;;;;;10.14;100.00;100901.00;5073072;28;20083;-66
2021/11/13 04:57:41;;;;;;;9.32;2.20;;;;;;;10.14;100.00;100901.00;5073088;28;20032;-63
2021/11/13 05:00:09;;;;;;;13.23;3.10;;;;;;;10.13;100.00;100899.28;5073642;28;20028;-66
2021/11/13 05:02:36;;;;;;;11.68;2.67;;;;;;;10.12;100.00;100899.34;5081404;28;20032;-70
2021/11/13 05:05:01;;;;;;;10.48;2.60;;;;;;;10.13;100.00;100898.44;5093160;28;20016;-63
2021/11/13 05:07:27;;;;;;;8.88;2.42;;;;;;;10.14;100.00;100906.31;5092905;28;20025;-64
2021/11/13 05:09:54;;;;;;;14.05;2.40;;;;;;;10.15;100.00;100907.16;5093186;28;20060;-63
2021/11/13 05:12:20;;;;;;;8.23;2.50;;;;;;;10.15;100.00;100900.09;5088869;28;20498;-70
2021/11/13 05:14:46;;;;;;;14.10;3.03;;;;;;;10.13;100.00;100907.22;5072275;28;20554;-64
2021/11/13 05:17:11;;;;;;;19.30;2.85;;;;;;;10.17;100.00;100906.16;5072596;28;20048;-66
2021/11/13 05:19:37;;;;;;;13.60;2.63;;;;;;;10.17;100.00;100908.81;5072710;28;20032;-71
2021/11/13 05:22:03;;;;;;;14.02;3.20;;;;;;;10.17;100.00;100914.09;5073979;28;20082;-62
2021/11/13 05:24:29;;;;;;;11.85;2.97;;;;;;;10.17;100.00;100918.53;5072329;28;20032;-63
2021/11/13 05:26:54;;;;;;;15.80;3.33;;;;;;;10.15;100.00;100913.31;5072779;28;20093;-70
2021/11/13 05:29:19;;;;;;;16.35;3.30;;;;;;;10.17;100.00;100916.75;5072131;28;20063;-63
2021/11/13 05:31:44;;;;;;;10.38;2.70;;;;;;;10.22;100.00;100913.91;5072705;28;20032;-64
2021/11/13 05:34:10;;;;;;;12.57;3.15;;;;;;;10.26;100.00;100919.94;5084880;28;20078;-63
2021/11/13 05:36:35;;;;;;;7.63;2.92;;;;;;;10.24;100.00;100925.28;5072648;28;20020;-63
2021/11/13 05:39:00;;;;;;;13.25;2.97;;;;;;;10.21;100.00;100927.22;5072639;28;20039;-63
2021/11/13 05:41:26;;;;;;;11.93;3.00;;;;;;;10.17;100.00;100924.69;5072587;28;20040;-68
2021/11/13 05:43:51;;;;;;;9.95;3.30;;;;;;;10.22;100.00;100920.97;5088710;28;20031;-63
2021/11/13 05:46:16;;;;;;;11.38;2.67;;;;;;;10.23;100.00;100925.34;5074378;28;20027;-64
2021/11/13 05:48:43;;;;;;;14.02;3.17;;;;;;;10.19;100.00;100932.56;5072629;28;20124;-63
2021/11/13 05:51:08;;;;;;;7.47;3.00;;;;;;;10.21;100.00;100938.66;5065917;28;20052;-63
2021/11/13 05:53:33;;;;;;;11.63;3.15;;;;;;;10.19;100.00;100934.34;5072133;28;20701;-64
2021/11/13 05:55:59;;;;;;;10.00;2.90;;;;;;;10.20;100.00;100939.56;5072091;28;20527;-65
2021/11/13 05:58:25;;;;;;;13.10;3.33;;;;;;;10.19;100.00;100932.56;5072510;28;20555;-63
2021/11/13 06:00:50;;;;;;;12.30;3.33;;;;;;;10.21;100.00;100940.44;5072072;28;20056;-62
2021/11/13 06:03:16;;;;;;;10.75;3.40;;;;;;;10.20;100.00;100944.88;5073219;28;20380;-62
2021/11/13 06:05:43;;;;;;;10.65;3.50;;;;;;;10.20;100.00;100944.88;5072253;28;20042;-65
2021/11/13 06:08:09;;;;;;;14.85;3.83;;;;;;;10.21;100.00;100941.31;5052186;28;20025;-65
2021/11/13 06:10:34;;;;;;;9.30;3.10;;;;;;;10.21;100.00;100951.03;5052296;28;20021;-63
2021/11/13 06:12:59;;;;;;;11.50;3.35;;;;;;;10.18;100.00;100949.38;5052395;28;20025;-63
2021/11/13 06:15:25;;;;;;;17.80;3.03;;;;;;;10.16;100.00;100943.28;5066628;28;20039;-63
2021/11/13 06:17:50;;;;;;;9.70;3.00;;;;;;;10.16;100.00;100949.41;5071954;28;20051;-64
2021/11/13 06:20:16;;;;;;;15.07;3.33;;;;;;;10.16;100.00;100948.56;5072213;28;20039;-64
2021/11/13 06:22:43;;;;;;;8.98;2.70;;;;;;;10.14;100.00;100953.94;5072291;28;20024;-63
2021/11/13 06:25:10;;;;;;;9.23;2.92;;;;;;;10.14;100.00;100959.22;5073366;28;20472;-65
2021/11/13 06:27:36;;;;;;;12.13;3.05;;;;;;;10.14;100.00;100956.56;5071427;28;20040;-64
2021/11/13 06:30:03;;;;;;;14.00;2.60;;;;;;;10.12;100.00;100958.41;5055533;28;20037;-65
2021/11/13 06:32:29;;;;;;;15.05;2.83;;;;;;;10.13;100.00;100954.84;5051634;28;20043;-64
2021/11/13 06:34:58;;;;;;;7.18;2.33;;;;;;;10.14;100.00;100959.22;5052035;28;20107;-66
2021/11/13 06:37:24;;;;;;;9.32;2.50;;;;;;;10.16;100.00;100972.38;5072636;28;20035;-65
2021/11/13 06:39:49;;;;;;;11.35;2.50;;;;;;;10.16;100.00;100978.53;5071552;28;20438;-63
2021/11/13 06:42:14;;;;;;;14.52;3.80;;;;;;;10.17;100.00;100980.25;5071869;28;20464;-65
2021/11/13 06:44:39;;;;;;;9.10;2.67;;;;;;;10.16;100.00;100982.97;5071864;28;20029;-64
2021/11/13 06:47:05;;;;;;;13.35;3.20;;;;;;;10.17;100.00;100993.50;5065785;28;20171;-65
2021/11/13 06:49:31;;;;;;;17.75;2.95;;;;;;;10.20;100.00;100991.66;5067093;28;20073;-67
2021/11/13 06:51:56;;;;;;;17.23;2.67;;;;;;;10.19;100.00;100996.06;5075202;28;20028;-64
2021/11/13 06:54:22;;;;;;;13.15;2.60;;;;;;;10.20;100.00;100996.94;5075784;28;20029;-64
2021/11/13 06:56:49;;;;;;;7.60;2.72;;;;;;;10.19;100.00;101000.50;5077563;28;20082;-66
2021/11/13 06:59:14;;;;;;;14.00;3.00;;;;;;;10.20;100.00;100996.94;5095622;28;20024;-67
2021/11/13 07:01:39;;;;;;;9.70;2.63;;;;;;;10.19;100.00;101009.28;5094669;28;20022;-66
2021/11/13 07:04:05;;;;;;;11.70;2.85;;;;;;;10.22;100.00;101011.84;5075086;28;20025;-66
2021/11/13 07:06:30;;;;;;;17.73;3.45;;;;;;;10.27;100.00;101009.00;5075209;28;20078;-63
2021/11/13 07:08:56;;;;;;;13.05;3.47;;;;;;;10.33;100.00;101012.25;5089383;28;20024;-64
2021/11/13 07:11:21;;;;;;;11.88;3.55;;;;;;;10.40;100.00;101023.50;5091724;28;20509;-65
2021/11/13 07:13:47;;;;;;;11.20;3.33;;;;;;;10.41;100.00;101029.63;5068419;28;20155;-64
2021/11/13 07:16:13;;;;;;;11.77;3.53;;;;;;;10.32;100.00;101036.16;5074699;28;20021;-62
2021/11/13 07:18:38;;;;;;;14.27;4.00;;;;;;;10.28;100.00;101043.34;5066523;28;20480;-63
2021/11/13 07:21:06;;;;;;;14.75;4.50;;;;;;;10.25;100.00;101043.47;5056239;28;20013;-63
2021/11/13 07:23:34;;;;;;;14.68;4.30;;;;;;;10.22;100.00;101050.66;5068654;28;20020;-63
2021/11/13 07:26:01;;;;;;;11.77;4.40;;;;;;;10.21;100.00;101049.81;5066700;28;20020;-63
2021/11/13 07:28:46;;;;;;;20.77;6.72;;;;;;;10.21;100.00;101052.44;5070817;28;20106;-62
2021/11/13 07:31:18;;;;;;;14.88;5.15;;;;;;;10.26;100.00;101060.22;5071953;28;20024;-63
2021/11/13 07:33:45;;;;;;;19.20;5.10;;;;;;;10.28;100.00;101056.59;5074665;28;20050;-62
2021/11/13 07:36:11;;;;;;;21.10;5.38;;;;;;;10.32;100.00;101065.28;5074827;28;20028;-63
2021/11/13 07:38:39;;;;;;;25.20;6.00;;;;;;;10.33;100.00;101074.91;5074885;28;20035;-64
2021/11/13 07:41:05;;;;;;;19.92;4.72;;;;;;;10.37;100.00;101071.28;5090668;28;20464;-63
2021/11/13 07:43:31;;;;;;;16.65;4.95;;;;;;;10.43;100.00;101073.66;5095091;28;20020;-63
2021/11/13 07:45:56;;;;;;;11.82;4.32;;;;;;;10.43;100.00;101075.44;5069356;28;20361;-63
2021/11/13 07:48:22;;;;;;;12.20;4.78;;;;;;;10.41;100.00;101080.81;5054371;28;20025;-64
2021/11/13 07:50:48;;;;;;;14.63;4.70;;;;;;;10.38;100.00;101080.91;5065557;28;20074;-65
2021/11/13 07:53:13;;;;;;;12.90;4.60;;;;;;;10.42;100.00;101079.00;5074350;28;20537;-63
2021/11/13 07:55:39;;;;;;;13.40;4.50;;;;;;;10.43;100.00;101078.09;5074203;28;20103;-62
2021/11/13 07:58:05;;;;;;;16.48;5.05;;;;;;;10.46;100.00;101081.50;5074220;28;20112;-64
2021/11/13 08:00:30;;;;;;;11.85;4.60;;;;;;;10.56;100.00;101089.94;5074897;28;20116;-63
2021/11/13 08:02:56;;;;;;;15.60;4.18;;;;;;;10.55;100.00;101082.03;5074362;28;20033;-65
2021/11/13 08:05:22;;;;;;;15.18;4.60;;;;;;;10.58;100.00;101084.56;5074343;28;20026;-62
2021/11/13 08:07:47;;;;;;;14.43;4.57;;;;;;;10.56;100.00;101097.00;5072769;28;20526;-65
2021/11/13 08:10:14;;;;;;;10.60;4.72;;;;;;;10.64;100.00;101085.16;5055367;28;20017;-64
2021/11/13 08:12:40;;;;;;;11.07;4.13;;;;;;;10.85;100.00;101098.44;5070046;28;20115;-64
2021/11/13 08:15:07;;;;;;;13.77;4.85;;;;;;;11.08;100.00;101094.81;5073463;28;20051;-63
2021/11/13 08:17:33;;;;;;;13.55;4.90;;;;;;;11.32;100.00;101100.00;5072677;28;20476;-64
2021/11/13 08:19:58;;;;;;;15.85;5.07;;;;;;;11.51;100.00;101105.34;5073887;28;20033;-62
2021/11/13 08:22:23;;;;;;;13.38;4.53;;;;;;;11.57;100.00;101113.03;5079799;28;20028;-65
2021/11/13 08:24:48;;;;;;;13.25;4.18;;;;;;;11.56;100.00;101113.06;5093897;28;20130;-64
2021/11/13 08:27:15;;;;;;;14.82;4.65;;;;;;;11.47;100.00;101117.00;5088553;28;20428;-63
2021/11/13 08:29:40;;;;;;;15.07;4.35;;;;;;;11.42;100.00;101119.88;5072388;28;20456;-63
2021/11/13 08:32:06;;;;;;;10.18;3.92;;;;;;;11.41;100.00;101122.59;5090493;28;20044;-63
2021/11/13 08:34:33;;;;;;;13.25;3.72;;;;;;;11.38;100.00;101117.41;5093952;28;20077;-65
2021/11/13 08:36:58;;;;;;;10.27;3.63;;;;;;;11.34;100.00;101123.78;5094016;28;20064;-62
2021/11/13 08:39:25;;;;;;;12.15;3.38;;;;;;;11.30;100.00;101126.56;5089142;28;20552;-64
2021/11/13 08:41:50;;;;;;;11.48;3.67;;;;;;;11.29;100.00;101127.50;5091502;28;20024;-64
2021/11/13 08:44:16;;;;;;;14.45;3.92;;;;;;;11.25;100.00;101115.31;5066416;28;20028;-67
2021/11/13 08:46:41;;;;;;;12.02;3.50;;;;;;;11.23;100.00;101127.75;5052858;28;20017;-64
2021/11/13 08:49:07;;;;;;;12.73;4.05;;;;;;;11.19;100.00;101136.78;5053554;28;20385;-63
2021/11/13 08:51:33;;;;;;;16.83;4.15;;;;;;;11.16;100.00;101136.88;5065874;28;20024;-64
2021/11/13 08:53:58;;;;;;;14.02;3.90;;;;;;;11.21;100.00;101137.56;5073158;28;20025;-62
2021/11/13 08:56:27;;;;;;;18.35;5.70;;;;;;;11.30;100.00;101150.44;5073161;28;20027;-63
2021/11/13 08:58:55;;;;;;;19.00;5.72;;;;;;;11.40;100.00;101152.69;5072807;28;20020;-63
2021/11/13 09:01:22;;;;;;;8.25;3.85;;;;;;;11.53;100.00;101156.50;5065339;28;20097;-63
2021/11/13 09:03:50;;;;;;;8.40;3.80;;;;;;;11.61;100.00;101148.22;5076732;28;20036;-64
2021/11/13 09:06:18;;;;;;;11.98;3.50;;;;;;;11.79;100.00;101151.84;5056963;28;20013;-64
2021/11/13 09:08:46;;;;;;;9.52;3.95;;;;;;;11.88;100.00;101150.56;5068950;28;20108;-64
2021/11/13 09:11:16;;;;;;;14.02;3.40;;;;;;;12.30;100.00;101152.19;5056430;28;20028;-64
2021/11/13 09:13:42;;;;;;;9.75;2.88;;;;;;;12.97;100.00;101157.84;5076844;28;20028;-65
2021/11/13 09:16:09;;;;;;;6.60;2.50;;;;;;;13.38;100.00;101156.72;5072419;28;20024;-65
2021/11/13 09:18:35;;;;;;;9.50;2.60;;;;;;;13.15;97.30;101161.38;5070658;28;20400;-62
2021/11/13 09:21:01;;;;;;;11.05;3.22;;;;;;;13.08;98.19;101166.16;5062569;28;20025;-64
2021/11/13 09:23:26;;;;;;;10.10;3.58;;;;;;;12.96;96.68;101156.13;5069686;28;20025;-63
2021/11/13 09:25:54;;;;;;;6.30;2.00;;;;;;;12.85;96.48;101164.66;5060728;28;20039;-65
2021/11/13 09:28:19;;;;;;;8.85;2.42;;;;;;;12.78;97.12;101168.53;5072367;28;20118;-64
2021/11/13 09:30:47;;;;;;;4.85;2.15;;;;;;;12.67;97.00;101179.66;5072274;28;20131;-65
2021/11/13 09:33:13;;;;;;;9.50;2.45;;;;;;;12.55;97.51;101178.47;5072427;28;20782;-64
2021/11/13 09:35:40;;;;;;;8.10;2.40;;;;;;;12.44;98.48;101184.31;5085159;28;20078;-64
2021/11/13 09:38:06;;;;;;;8.05;2.25;;;;;;;12.44;99.04;101179.00;5057249;28;20036;-66
2021/11/13 09:40:32;;;;;;;6.30;2.53;;;;;;;12.52;99.40;101181.28;5052984;28;20036;-65
2021/11/13 09:43:01;;;;;;;5.75;2.00;;;;;;;13.00;100.00;101178.94;5071306;28;20027;-65
2021/11/13 09:45:29;;;;;;;10.73;2.90;;;;;;;13.42;96.82;101182.22;5071479;28;20445;-70
2021/11/13 09:47:56;;;;;;;8.43;2.75;;;;;;;13.59;95.37;101184.00;5072786;28;20051;-65
2021/11/13 09:50:28;;;;;;;7.35;2.33;;;;;;;13.51;94.11;101183.56;5072461;28;20075;-65
2021/11/13 09:52:55;;;;;;;7.13;2.00;;;;;;;13.87;94.38;101190.53;5072465;28;20104;-66
2021/11/13 09:55:21;;;;;;;6.50;1.77;;;;;;;13.98;91.22;101189.97;5066082;28;20462;-68
2021/11/13 09:57:47;;;;;;;7.85;1.88;;;;;;;14.67;90.45;101190.69;5059296;28;20048;-65
2021/11/13 10:00:16;;;;;;;5.13;1.67;;;;;;;15.16;87.31;101195.84;5051898;28;20061;-65
2021/11/13 10:02:42;;;;;;;6.00;1.50;;;;;;;16.10;84.29;101204.53;5060880;28;20028;-62
2021/11/13 10:05:09;;;;;;;6.55;1.63;;;;;;;16.15;79.95;101197.97;5082283;28;20346;-64
2021/11/13 10:07:35;;;;;;;3.65;1.35;;;;;;;16.13;82.85;101191.84;5071810;28;20036;-63
2021/11/13 10:10:03;;;;;;;4.93;1.83;;;;;;;16.67;77.68;101207.13;5072684;28;20021;-64
2021/11/13 10:12:33;;;;;;;4.55;1.73;;;;;;;16.83;78.36;101203.47;5071107;28;20025;-64
2021/11/13 10:14:58;;;;;;;7.15;1.90;;;;;;;16.40;77.90;101201.75;5049544;28;20075;-63
2021/11/13 10:17:25;;;;;;;6.80;1.90;;;;;;;15.83;80.51;101206.16;5051933;28;20029;-64
2021/11/13 10:19:52;;;;;;;6.00;1.67;;;;;;;15.39;80.39;101206.97;5059742;28;20029;-66
2021/11/13 10:22:19;;;;;;;6.38;1.88;;;;;;;15.24;83.30;101212.28;5074743;28;20073;-63
2021/11/13 10:24:47;;;;;;;5.07;1.42;;;;;;;15.08;84.22;101214.97;5075837;28;20111;-66
2021/11/13 10:27:13;;;;;;;7.43;1.90;;;;;;;14.86;83.73;101210.00;5075832;28;20028;-64
2021/11/13 10:29:39;;;;;;;6.18;2.00;;;;;;;14.69;85.12;101218.09;5075594;28;20135;-63
2021/11/13 10:32:12;;;;;;;6.07;1.90;;;;;;;14.65;87.00;101219.22;5076940;28;20033;-64
2021/11/13 10:34:42;;;;;;;8.27;1.85;;;;;;;14.59;87.34;101225.72;5074256;28;20063;-64
2021/11/13 10:37:23;;;;;;;8.98;2.20;;;;;;;14.48;86.55;101223.66;5075794;28;20107;-64
2021/11/13 10:39:49;;;;;;;5.18;1.60;;;;;;;14.34;87.57;101228.88;5075237;28;20024;-64
2021/11/13 10:42:19;;;;;;;4.80;1.85;;;;;;;14.25;87.83;101228.44;5090342;28;20012;-66
2021/11/13 10:45:00;;;;;;;8.17;2.10;;;;;;;14.16;88.26;101236.06;5082304;28;20108;-64
2021/11/13 10:47:34;;;;;;;4.57;2.10;;;;;;;14.20;86.72;101232.28;5077992;28;20494;-64
2021/11/13 10:50:16;;;;;;;4.05;1.60;;;;;;;14.26;86.13;101234.63;5086910;28;20044;-65
2021/11/13 10:53:05;;;;;;;5.38;2.13;;;;;;;14.28;86.05;101237.19;5075001;28;20150;-65
2021/11/13 10:55:30;;;;;;;8.13;2.05;;;;;;;14.62;87.23;101230.88;5074412;28;20039;-66
2021/11/13 10:58:41;;;;;;;3.58;1.50;;;;;;;15.21;83.23;101233.78;5075854;28;20028;-64
2021/11/13 11:01:25;;;;;;;4.45;1.30;;;;;;;16.34;79.63;101235.06;4973953;28;20038;-64
2021/11/13 11:03:53;;;;;;;4.72;1.60;;;;;;;17.31;75.55;101227.94;4974474;28;20082;-62
2021/11/13 11:06:26;;;;;;;9.32;2.97;;;;;;;18.38;71.80;101239.41;4975237;28;20051;-65
2021/11/13 11:08:52;;;;;;;4.85;1.60;;;;;;;18.79;68.61;101240.03;4973769;28;20046;-64
2021/11/13 11:11:35;;;;;;;5.00;1.45;;;;;;;19.22;64.93;101236.03;4974561;28;20042;-66